Meteo Giornale » Osservazioni meteo Stati Uniti (USA) » Stockton Metropolitan
ore: 12:55 - Osservazioni Meteo Stockton Metropolitan
Lat. 37° 53' N Lon. 121° 13' W Alt. 9 metri s.l.m.
24 °C
Sereno
Temp. 24 Ore
11 °C
26 °C
Sud-Ovest
13 Km/h
Dew point 9 °C
Umidità 38 %
Visibilità 10 Km
Il sole sorge alle ore 06:35
Il sole tramonta alle ore 19:34
| Data e Ora | Cielo e Fenomeni | T °C | DP °C | Um. % | Pres. hPa | Vis. km | Vento km/h | |
|---|---|---|---|---|---|---|---|---|
| Oggi h: 12:55 | Sereno | 24 | 9 | 38 | 1015 | 10 | SO 13 | |
| Oggi h: 11:55 | Poco Nuvoloso | 23 | 10 | 43 | 1016 | 10 | O 16.7 | |
| Oggi h: 10:55 | Sereno | 22 | 11 | 49 | 1016 | 10 | SO 13 | |
| Oggi h: 09:55 | Sereno | 19 | 11 | 59 | 1016 | 10 | N 7.4 | |
| Oggi h: 08:55 | Sereno | 17 | 12 | 72 | 1016 | 10 | N 5.5 | |
| Oggi h: 07:55 | Sereno | 14 | 11 | 82 | 1015 | 10 | N 5.5 | |
| Oggi h: 06:55 | Sereno | 11 | 10 | 93 | 1014 | 10 | S/SE 7.4 | |
| Oggi h: 05:55 | Sereno | 13 | 11 | 87 | 1014 | 10 | N 0 | |
| Oggi h: 04:55 | Sereno | 14 | 11 | 82 | 1014 | 10 | O/SO 9.3 | |
| Oggi h: 03:55 | Sereno | 13 | 11 | 87 | 1013 | 10 | O/NO 11.1 | |
| Oggi h: 02:55 | Sereno | 14 | 11 | 82 | 1013 | 10 | N 9.3 | |
| Oggi h: 01:55 | Sereno | 15 | 12 | 82 | 1013 | 10 | N/NO 13 | |
| Oggi h: 00:55 | Sereno | 16 | 12 | 77 | 1013 | 10 | O/NO 18.5 | |
| Ieri h: 23:55 | Sereno | 16 | 12 | 77 | 1013 | 10 | O/NO 24 | |
| Ieri h: 22:55 | Sereno | 16 | 12 | 77 | 1013 | 10 | NO 16.7 | |
| Ieri h: 21:55 | Sereno | 17 | 12 | 72 | 1012 | 10 | O 33.3 | |
| Ieri h: 20:55 | Sereno | 18 | 12 | 67 | 1012 | 10 | O 25.9 | |
| Ieri h: 19:55 | Sereno | 18 | 13 | 72 | 1011 | 10 | O 27.8 | |
| Ieri h: 18:55 | Sereno | 21 | 13 | 60 | 1011 | 10 | O 29.6 | |
| Ieri h: 17:55 | Sereno | 24 | 12 | 47 | 1010 | 10 | O 20.3 | |
| Ieri h: 16:55 | Sereno | 26 | 11 | 39 | 1010 | 10 | O/NO 20.3 | |
| Ieri h: 15:55 | Sereno | 26 | 11 | 39 | 1011 | 10 | O 20.3 | |
| Ieri h: 14:55 | Sereno | 26 | 12 | 41 | 1011 | 10 | O 24 | |
| Ieri h: 13:55 | Sereno | 25 | 12 | 44 | 1012 | 10 | O 24 | |



